RJOM(METAR)
05/25 21:00
METAR RJOM 251200Z 20008KT 9999 FEW040 SCT050 BKN080 20/18 Q1011 RMK
1CU040 3SC050 5AC080 A2987=
戻る
トップページへ戻る
IMOC Co,.Ltd.